Time;durP1;ratioP1;P1;durP2;ratioP2;P2;SDS_P1;SDS_P2;PMS_P1;PMS_P2;Temp;Humidity;BMP_temperature;BMP_pressure;BME280_temperature;BME280_humidity;BME280_pressure;Samples;Min_cycle;Max_cycle;Signal;HPM_P1;HPM_P2
2024/02/21 00:00:19;;;;;;;4.32;1.95;;;;;;;;;;5039389;28;20032;-92
2024/02/21 00:02:45;;;;;;;3.45;1.58;;;;;;;;;;5039264;28;20466;-93
2024/02/21 00:05:11;;;;;;;5.72;1.83;;;;;;;;;;5039382;28;20028;-94
2024/02/21 00:07:37;;;;;;;3.10;2.08;;;;;;;;;;5038873;28;20080;-93
2024/02/21 00:10:04;;;;;;;5.03;2.08;;;;;;;;;;5039069;28;20386;-93
2024/02/21 00:12:30;;;;;;;4.80;2.35;;;;;;;;;;5039400;28;20028;-93
2024/02/21 00:14:56;;;;;;;4.93;2.15;;;;;;;;;;5039113;28;20036;-93
2024/02/21 00:17:22;;;;;;;4.25;2.03;;;;;;;;;;5039310;28;20086;-93
2024/02/21 00:19:48;;;;;;;5.05;1.63;;;;;;;;;;5038842;28;20032;-91
2024/02/21 00:22:14;;;;;;;3.03;1.70;;;;;;;;;;5039747;28;20072;-94
2024/02/21 00:24:40;;;;;;;3.10;1.63;;;;;;;;;;5039067;28;20116;-95
2024/02/21 00:27:06;;;;;;;4.43;1.77;;;;;;;;;;5061071;28;20033;-88
2024/02/21 00:29:34;;;;;;;4.88;2.45;;;;;;;;;;5055379;28;20025;-93
2024/02/21 00:32:00;;;;;;;4.63;2.35;;;;;;;;;;5038573;28;20067;-93
2024/02/21 00:34:26;;;;;;;6.07;2.08;;;;;;;;;;5038707;28;20021;-93
2024/02/21 00:36:52;;;;;;;10.98;4.47;;;;;;;;;;5038319;28;20521;-93
2024/02/21 00:39:18;;;;;;;16.05;5.05;;;;;;;;;;5038205;28;20079;-93
2024/02/21 00:41:44;;;;;;;5.13;1.98;;;;;;;;;;5037614;28;20025;-93
2024/02/21 00:44:10;;;;;;;4.57;2.15;;;;;;;;;;5038437;28;20032;-92
2024/02/21 00:46:38;;;;;;;6.28;2.67;;;;;;;;;;5038255;28;20044;-91
2024/02/21 00:49:05;;;;;;;7.78;2.63;;;;;;;;;;5038658;28;20021;-94
2024/02/21 00:51:31;;;;;;;6.70;2.47;;;;;;;;;;5038290;28;20057;-92
2024/02/21 00:53:57;;;;;;;5.22;2.35;;;;;;;;;;5038084;28;20178;-93
2024/02/21 00:56:23;;;;;;;5.93;2.47;;;;;;;;;;5037885;28;20489;-92
2024/02/21 00:58:49;;;;;;;5.63;2.10;;;;;;;;;;5038039;28;20021;-93
2024/02/21 01:01:22;;;;;;;7.85;2.50;;;;;;;;;;5038396;28;20082;-94
2024/02/21 01:03:48;;;;;;;5.30;2.57;;;;;;;;;;5038172;28;20017;-91
2024/02/21 01:06:14;;;;;;;6.22;2.97;;;;;;;;;;5038486;28;20064;-89
2024/02/21 01:08:40;;;;;;;4.63;2.50;;;;;;;;;;5038518;28;20029;-89
2024/02/21 01:11:06;;;;;;;7.90;2.70;;;;;;;;;;5038547;28;20036;-90
2024/02/21 01:13:32;;;;;;;5.53;1.95;;;;;;;;;;5038245;28;20469;-94
2024/02/21 01:15:59;;;;;;;5.60;2.47;;;;;;;;;;5037810;28;20029;-93
2024/02/21 01:18:25;;;;;;;5.65;2.67;;;;;;;;;;5038160;28;20052;-91
2024/02/21 01:20:51;;;;;;;8.15;2.53;;;;;;;;;;5037652;28;20056;-92
2024/02/21 01:23:17;;;;;;;5.75;2.25;;;;;;;;;;5037510;28;20078;-92
2024/02/21 01:25:44;;;;;;;7.28;2.13;;;;;;;;;;5037434;28;20033;-91
2024/02/21 01:28:10;;;;;;;3.70;2.20;;;;;;;;;;5037513;28;20397;-93
2024/02/21 01:30:37;;;;;;;6.63;2.10;;;;;;;;;;5037431;28;20021;-93
2024/02/21 01:33:03;;;;;;;6.70;1.98;;;;;;;;;;5037411;28;20379;-92
2024/02/21 01:35:29;;;;;;;4.97;2.35;;;;;;;;;;5037490;28;20052;-92
2024/02/21 01:37:55;;;;;;;5.65;2.20;;;;;;;;;;5037289;28;20367;-93
2024/02/21 01:40:22;;;;;;;7.95;3.40;;;;;;;;;;5037428;28;20033;-93
2024/02/21 01:42:48;;;;;;;5.03;2.53;;;;;;;;;;5037889;28;20108;-93
2024/02/21 01:45:14;;;;;;;7.63;2.63;;;;;;;;;;5037430;28;20029;-93
2024/02/21 01:47:41;;;;;;;4.80;2.05;;;;;;;;;;5037563;28;20060;-95
2024/02/21 01:50:07;;;;;;;7.43;2.45;;;;;;;;;;5037408;28;20054;-93
2024/02/21 01:52:36;;;;;;;8.80;3.13;;;;;;;;;;5036677;28;20039;-94
2024/02/21 01:55:02;;;;;;;8.88;2.85;;;;;;;;;;5036725;28;20452;-93
2024/02/21 01:57:28;;;;;;;6.55;3.10;;;;;;;;;;5037347;28;20075;-94
2024/02/21 01:59:55;;;;;;;6.82;2.72;;;;;;;;;;5037395;28;20025;-95
2024/02/21 02:02:22;;;;;;;8.07;2.47;;;;;;;;;;5037402;28;20116;-95
2024/02/21 02:04:48;;;;;;;10.55;2.55;;;;;;;;;;5037670;28;20021;-94
2024/02/21 02:07:14;;;;;;;6.28;3.08;;;;;;;;;;5037590;28;20047;-93
2024/02/21 02:09:40;;;;;;;9.82;3.90;;;;;;;;;;5054139;28;20037;-93
2024/02/21 02:12:06;;;;;;;7.63;2.97;;;;;;;;;;5059909;28;20025;-93
2024/02/21 02:14:32;;;;;;;7.70;3.35;;;;;;;;;;5040771;28;20056;-93
2024/02/21 02:16:58;;;;;;;7.53;2.60;;;;;;;;;;5037114;28;20057;-95
2024/02/21 02:19:25;;;;;;;6.70;3.20;;;;;;;;;;5054738;28;20463;-94
2024/02/21 02:21:56;;;;;;;5.28;2.75;;;;;;;;;;5036438;28;20124;-94
2024/02/21 02:24:25;;;;;;;9.23;3.47;;;;;;;;;;5037118;28;20024;-94
2024/02/21 02:26:51;;;;;;;6.20;2.60;;;;;;;;;;5037061;28;20124;-93
2024/02/21 02:31:59;;;;;;;8.13;3.80;;;;;;;;;;5072744;22;20126;-93
2024/02/21 02:34:25;;;;;;;13.23;2.63;;;;;;;;;;5036902;28;20029;-94
2024/02/21 02:36:51;;;;;;;9.45;2.92;;;;;;;;;;5036448;28;20021;-94
2024/02/21 02:39:17;;;;;;;7.80;2.65;;;;;;;;;;5036650;28;20504;-93
2024/02/21 02:41:43;;;;;;;11.18;3.15;;;;;;;;;;5036243;28;20020;-94
2024/02/21 02:44:09;;;;;;;8.00;3.15;;;;;;;;;;5036674;28;20029;-92
2024/02/21 02:46:35;;;;;;;7.05;2.53;;;;;;;;;;5036616;28;20392;-92
2024/02/21 02:49:01;;;;;;;9.75;2.70;;;;;;;;;;5036276;28;20079;-92
2024/02/21 02:51:27;;;;;;;9.95;2.95;;;;;;;;;;5036694;28;20033;-94
2024/02/21 02:53:53;;;;;;;9.55;2.92;;;;;;;;;;5036335;28;20021;-93
2024/02/21 02:56:19;;;;;;;8.23;3.47;;;;;;;;;;5036836;28;20025;-94
2024/02/21 02:58:46;;;;;;;8.05;2.78;;;;;;;;;;5036673;28;20048;-93
2024/02/21 03:01:13;;;;;;;6.00;2.40;;;;;;;;;;5036471;28;20028;-93
2024/02/21 03:03:39;;;;;;;8.15;2.67;;;;;;;;;;5036284;28;20033;-93
2024/02/21 03:06:05;;;;;;;7.00;2.80;;;;;;;;;;5039925;28;20118;-94
2024/02/21 03:08:34;;;;;;;6.65;2.72;;;;;;;;;;5040028;28;20037;-95
2024/02/21 03:11:00;;;;;;;7.93;3.58;;;;;;;;;;5040575;28;20043;-92
2024/02/21 03:13:26;;;;;;;8.85;3.42;;;;;;;;;;5040377;28;20032;-94
2024/02/21 03:15:52;;;;;;;10.65;3.22;;;;;;;;;;5039857;28;20029;-93
2024/02/21 03:18:18;;;;;;;9.57;3.60;;;;;;;;;;5040224;28;20080;-95
2024/02/21 03:20:44;;;;;;;10.27;3.15;;;;;;;;;;5039712;28;20040;-95
2024/02/21 03:23:10;;;;;;;10.38;3.35;;;;;;;;;;5040006;28;20068;-93
2024/02/21 03:25:36;;;;;;;7.53;2.50;;;;;;;;;;5040119;28;20110;-94
2024/02/21 03:28:03;;;;;;;10.75;3.55;;;;;;;;;;5039577;28;20029;-94
2024/02/21 03:30:29;;;;;;;7.25;2.80;;;;;;;;;;5039482;28;20098;-95
2024/02/21 03:32:55;;;;;;;11.52;3.88;;;;;;;;;;5040071;28;20033;-94
2024/02/21 03:35:22;;;;;;;13.27;3.08;;;;;;;;;;5039866;28;20067;-94
2024/02/21 03:37:48;;;;;;;7.75;3.60;;;;;;;;;;5039904;28;20029;-94
2024/02/21 03:40:14;;;;;;;9.82;3.75;;;;;;;;;;5040120;28;20346;-93
2024/02/21 03:42:47;;;;;;;10.57;3.92;;;;;;;;;;5039750;28;20029;-94
2024/02/21 03:45:13;;;;;;;9.07;2.92;;;;;;;;;;5040321;28;20492;-94
2024/02/21 03:47:42;;;;;;;7.07;3.63;;;;;;;;;;5039981;28;20033;-93
2024/02/21 03:50:08;;;;;;;7.60;2.80;;;;;;;;;;5039996;28;20482;-93
2024/02/21 03:52:35;;;;;;;10.43;3.50;;;;;;;;;;5059146;28;20028;-93
2024/02/21 03:55:01;;;;;;;8.27;3.03;;;;;;;;;;5062656;28;20044;-93
2024/02/21 03:57:27;;;;;;;7.75;3.70;;;;;;;;;;5042084;28;20078;-94
2024/02/21 03:59:53;;;;;;;11.20;3.22;;;;;;;;;;5039629;28;20074;-94
2024/02/21 04:02:19;;;;;;;9.88;3.67;;;;;;;;;;5039330;28;20029;-94
2024/02/21 04:04:48;;;;;;;8.50;3.38;;;;;;;;;;5039311;28;20025;-94
2024/02/21 04:07:15;;;;;;;7.68;3.40;;;;;;;;;;5039461;28;20047;-91
2024/02/21 04:09:41;;;;;;;12.75;3.20;;;;;;;;;;5036514;28;20056;-91
2024/02/21 04:12:09;;;;;;;8.63;3.20;;;;;;;;;;5038831;28;20120;-92
2024/02/21 04:14:35;;;;;;;7.45;3.38;;;;;;;;;;5036990;28;20035;-92
2024/02/21 04:17:02;;;;;;;10.30;3.42;;;;;;;;;;5037947;28;20025;-92
2024/02/21 04:19:28;;;;;;;8.75;3.33;;;;;;;;;;5038490;28;20025;-91
2024/02/21 04:21:54;;;;;;;11.02;3.40;;;;;;;;;;5038706;28;20640;-92
2024/02/21 04:24:20;;;;;;;10.57;3.45;;;;;;;;;;5038919;28;20041;-92
2024/02/21 04:26:46;;;;;;;7.85;3.20;;;;;;;;;;5038532;28;20118;-91
2024/02/21 04:29:12;;;;;;;8.82;3.72;;;;;;;;;;5038368;28;20115;-91
2024/02/21 04:31:38;;;;;;;13.02;3.67;;;;;;;;;;5018750;28;20052;-92
2024/02/21 04:34:07;;;;;;;10.23;3.30;;;;;;;;;;5016027;28;20398;-93
2024/02/21 04:36:33;;;;;;;9.63;5.25;;;;;;;;;;5015853;28;20072;-93
2024/02/21 04:38:59;;;;;;;8.77;4.10;;;;;;;;;;5015947;28;20085;-92
2024/02/21 04:41:25;;;;;;;7.82;3.67;;;;;;;;;;5016157;28;20056;-92
2024/02/21 04:43:51;;;;;;;7.50;3.80;;;;;;;;;;5015166;28;20029;-92
2024/02/21 04:46:17;;;;;;;11.25;4.30;;;;;;;;;;5015230;28;20145;-92
2024/02/21 04:48:44;;;;;;;13.30;4.43;;;;;;;;;;5015581;28;20026;-91
2024/02/21 04:51:10;;;;;;;11.73;4.32;;;;;;;;;;5015315;28;20029;-91
2024/02/21 04:53:36;;;;;;;11.13;4.32;;;;;;;;;;5015169;28;20021;-91
2024/02/21 04:56:02;;;;;;;10.45;3.72;;;;;;;;;;5015271;28;20084;-90
2024/02/21 04:58:28;;;;;;;9.60;3.58;;;;;;;;;;5015120;28;20041;-92
2024/02/21 05:00:55;;;;;;;11.45;4.05;;;;;;;;;;5014960;28;20026;-91
2024/02/21 05:03:21;;;;;;;10.43;3.55;;;;;;;;;;5015433;28;20030;-91
2024/02/21 05:05:47;;;;;;;13.18;3.50;;;;;;;;;;5014972;28;20030;-92
2024/02/21 05:08:14;;;;;;;10.43;3.40;;;;;;;;;;5015138;28;20100;-92
2024/02/21 05:10:40;;;;;;;7.90;3.05;;;;;;;;;;5015251;28;20022;-91
2024/02/21 05:13:06;;;;;;;9.85;3.78;;;;;;;;;;5014775;28;20088;-91
2024/02/21 05:15:32;;;;;;;13.75;3.35;;;;;;;;;;5014874;28;20105;-92
2024/02/21 05:17:58;;;;;;;12.05;3.47;;;;;;;;;;5014598;28;20030;-91
2024/02/21 05:20:24;;;;;;;8.50;3.17;;;;;;;;;;4998736;28;20035;-92
2024/02/21 05:22:50;;;;;;;11.50;3.80;;;;;;;;;;4978354;28;20531;-92
2024/02/21 05:25:16;;;;;;;16.67;3.78;;;;;;;;;;4975932;28;20018;-91
2024/02/21 05:27:42;;;;;;;8.98;3.47;;;;;;;;;;4980985;28;20484;-91
2024/02/21 05:30:09;;;;;;;8.25;3.10;;;;;;;;;;5014900;28;20048;-91
2024/02/21 05:32:36;;;;;;;12.55;3.47;;;;;;;;;;5014285;28;20073;-92
2024/02/21 05:35:02;;;;;;;7.80;3.45;;;;;;;;;;5033138;28;20002;-87
2024/02/21 05:37:29;;;;;;;11.07;4.03;;;;;;;;;;5027024;28;20025;-92
2024/02/21 05:39:55;;;;;;;11.43;3.63;;;;;;;;;;5015135;28;20061;-93
2024/02/21 05:42:21;;;;;;;16.38;5.00;;;;;;;;;;5014570;28;20026;-95
2024/02/21 05:44:47;;;;;;;11.27;4.20;;;;;;;;;;5014935;28;20479;-95
2024/02/21 05:47:15;;;;;;;11.48;3.70;;;;;;;;;;5014247;28;20479;-93
2024/02/21 05:49:41;;;;;;;12.65;4.28;;;;;;;;;;5014646;28;20112;-95
2024/02/21 05:52:07;;;;;;;7.25;3.60;;;;;;;;;;5014432;28;20057;-94
2024/02/21 05:54:33;;;;;;;8.15;3.78;;;;;;;;;;5014807;28;20026;-96
2024/02/21 05:56:59;;;;;;;12.02;4.03;;;;;;;;;;5014572;28;20034;-94
2024/02/21 06:02:18;;;;;;;13.25;5.10;;;;;;;;;;5010338;28;20034;-96
2024/02/21 06:04:59;;;;;;;19.08;6.65;;;;;;;;;;5015476;28;20548;-95
2024/02/21 06:07:25;;;;;;;12.85;4.95;;;;;;;;;;5016022;28;20041;-94
2024/02/21 06:09:51;;;;;;;15.43;5.57;;;;;;;;;;5015180;28;20050;-94
2024/02/21 06:12:17;;;;;;;19.80;4.93;;;;;;;;;;5015093;28;20033;-96
2024/02/21 06:14:46;;;;;;;15.68;5.70;;;;;;;;;;5014673;28;20041;-96
2024/02/21 06:17:12;;;;;;;12.75;5.30;;;;;;;;;;5011233;28;20022;-95
2024/02/21 06:19:41;;;;;;;15.20;4.90;;;;;;;;;;5013315;28;20036;-96
2024/02/21 06:22:07;;;;;;;9.75;5.22;;;;;;;;;;5016438;28;20092;-95
2024/02/21 06:24:34;;;;;;;11.07;4.63;;;;;;;;;;5017483;28;20129;-92
2024/02/21 06:27:00;;;;;;;10.90;4.45;;;;;;;;;;4988946;28;20043;-95
2024/02/21 06:29:26;;;;;;;13.05;4.18;;;;;;;;;;4994582;28;20027;-95
2024/02/21 06:31:52;;;;;;;11.40;3.63;;;;;;;;;;4994006;28;20046;-95
2024/02/21 06:34:18;;;;;;;10.95;3.80;;;;;;;;;;4994584;28;20033;-95
2024/02/21 06:36:45;;;;;;;11.80;3.60;;;;;;;;;;4994424;28;20038;-96
2024/02/21 06:39:12;;;;;;;10.32;3.53;;;;;;;;;;4993650;28;20080;-94
2024/02/21 06:41:38;;;;;;;11.80;3.30;;;;;;;;;;4994173;28;20094;-95
2024/02/21 06:44:04;;;;;;;10.02;3.08;;;;;;;;;;4994337;28;20042;-95
2024/02/21 06:46:32;;;;;;;11.63;3.50;;;;;;;;;;4994538;28;20039;-96
2024/02/21 06:48:59;;;;;;;9.80;3.30;;;;;;;;;;4993806;28;20029;-94
2024/02/21 06:51:26;;;;;;;13.95;4.07;;;;;;;;;;4993781;28;20027;-96
2024/02/21 06:53:52;;;;;;;11.73;3.75;;;;;;;;;;4994493;28;20027;-96
2024/02/21 06:56:18;;;;;;;12.98;4.30;;;;;;;;;;4994671;28;20026;-96
2024/02/21 06:58:44;;;;;;;12.65;5.10;;;;;;;;;;4994733;28;20265;-96
2024/02/21 07:01:10;;;;;;;10.30;3.95;;;;;;;;;;4994402;28;20113;-96
2024/02/21 07:03:37;;;;;;;11.40;3.80;;;;;;;;;;5007357;28;20026;-92
2024/02/21 07:06:03;;;;;;;10.95;4.22;;;;;;;;;;5014260;28;20029;-96
2024/02/21 07:08:29;;;;;;;13.45;4.30;;;;;;;;;;4974929;28;20085;-96
2024/02/21 07:10:55;;;;;;;12.43;5.78;;;;;;;;;;4974887;28;20142;-96
2024/02/21 07:13:22;;;;;;;19.92;9.30;;;;;;;;;;4975272;28;20504;-96
2024/02/21 07:15:49;;;;;;;25.98;10.27;;;;;;;;;;4980229;28;20007;-94
2024/02/21 07:18:15;;;;;;;13.30;5.78;;;;;;;;;;5030345;28;20109;-92
2024/02/21 07:20:41;;;;;;;10.75;4.20;;;;;;;;;;5027643;28;20052;-93
2024/02/21 07:23:08;;;;;;;12.10;4.93;;;;;;;;;;5015465;28;20566;-94
2024/02/21 07:25:34;;;;;;;12.88;5.95;;;;;;;;;;5014989;28;20025;-93
2024/02/21 07:28:00;;;;;;;10.65;5.30;;;;;;;;;;5013964;28;20068;-96
2024/02/21 07:30:26;;;;;;;13.73;4.80;;;;;;;;;;5014723;28;20053;-96
2024/02/21 07:32:52;;;;;;;13.02;4.22;;;;;;;;;;5008048;28;20035;-96
2024/02/21 07:35:19;;;;;;;12.35;4.25;;;;;;;;;;4994238;28;20037;-96
2024/02/21 07:37:45;;;;;;;9.02;4.32;;;;;;;;;;5011601;28;20029;-95
2024/02/21 07:40:14;;;;;;;10.52;4.30;;;;;;;;;;5014564;28;20118;-94
2024/02/21 07:42:41;;;;;;;13.20;4.40;;;;;;;;;;5013587;28;20053;-93
2024/02/21 07:45:10;;;;;;;11.70;4.45;;;;;;;;;;5017108;28;20029;-94
2024/02/21 07:47:40;;;;;;;12.05;5.68;;;;;;;;;;5013201;28;20034;-93
2024/02/21 07:50:07;;;;;;;11.23;7.32;;;;;;;;;;5013644;28;20396;-95
2024/02/21 07:52:33;;;;;;;11.75;4.60;;;;;;;;;;5015888;28;20029;-93
2024/02/21 07:54:59;;;;;;;13.07;6.25;;;;;;;;;;5017770;28;20432;-92
2024/02/21 07:57:25;;;;;;;12.82;5.90;;;;;;;;;;5015995;28;20034;-91
2024/02/21 07:59:51;;;;;;;9.50;5.72;;;;;;;;;;4987671;28;20023;-94
2024/02/21 08:02:17;;;;;;;10.98;7.93;;;;;;;;;;4983134;28;20038;-94
2024/02/21 08:04:44;;;;;;;13.13;6.60;;;;;;;;;;5005550;28;20036;-96
2024/02/21 08:07:13;;;;;;;14.43;6.25;;;;;;;;;;5017561;28;20034;-93
2024/02/21 08:09:40;;;;;;;13.38;5.18;;;;;;;;;;5017082;28;20056;-95
2024/02/21 08:12:07;;;;;;;13.15;6.10;;;;;;;;;;5016802;28;20037;-95
2024/02/21 08:14:33;;;;;;;11.88;4.82;;;;;;;;;;5018239;28;20018;-92
2024/02/21 08:17:00;;;;;;;9.30;5.45;;;;;;;;;;5012663;28;20034;-96
2024/02/21 08:19:26;;;;;;;13.57;6.05;;;;;;;;;;4999849;28;20077;-96
2024/02/21 08:21:52;;;;;;;9.77;4.88;;;;;;;;;;5002895;28;20030;-93
2024/02/21 08:24:18;;;;;;;8.50;4.30;;;;;;;;;;4998062;28;20038;-93
2024/02/21 08:26:45;;;;;;;13.23;4.65;;;;;;;;;;4998941;28;20042;-95
2024/02/21 08:29:16;;;;;;;9.88;4.82;;;;;;;;;;4997068;28;20776;-96
2024/02/21 08:31:42;;;;;;;11.68;5.35;;;;;;;;;;4996991;28;20073;-92
2024/02/21 08:34:08;;;;;;;13.30;5.63;;;;;;;;;;4999576;28;20022;-96
2024/02/21 08:36:35;;;;;;;12.35;5.00;;;;;;;;;;4996820;28;20070;-95
2024/02/21 08:39:03;;;;;;;16.63;7.43;;;;;;;;;;4999781;28;20029;-93
2024/02/21 08:41:31;;;;;;;10.82;5.78;;;;;;;;;;5015943;28;20030;-96
2024/02/21 08:43:57;;;;;;;11.32;5.75;;;;;;;;;;5015215;28;20018;-93
2024/02/21 08:46:24;;;;;;;12.05;6.00;;;;;;;;;;5015969;28;20092;-94
2024/02/21 08:51:54;;;;;;;12.93;4.95;;;;;;;;;;4978774;28;20501;-93
2024/02/21 08:54:20;;;;;;;10.20;6.93;;;;;;;;;;5001594;28;20041;-94
2024/02/21 08:56:46;;;;;;;12.07;4.90;;;;;;;;;;5016497;28;20394;-95
2024/02/21 08:59:13;;;;;;;10.05;7.90;;;;;;;;;;5028528;28;20029;-90
2024/02/21 09:01:44;;;;;;;11.30;5.32;;;;;;;;;;5034628;28;20117;-91
2024/02/21 09:04:19;;;;;;;10.95;5.80;;;;;;;;;;5021267;28;20120;-93
2024/02/21 09:06:46;;;;;;;10.55;4.38;;;;;;;;;;4997656;28;20052;-94
2024/02/21 09:09:12;;;;;;;11.95;5.95;;;;;;;;;;4998055;28;20156;-93
2024/02/21 09:11:39;;;;;;;11.65;7.10;;;;;;;;;;4994530;28;20089;-93
2024/02/21 09:14:06;;;;;;;9.63;4.57;;;;;;;;;;4993617;28;20046;-92
2024/02/21 09:16:32;;;;;;;8.68;4.50;;;;;;;;;;4994749;28;20491;-93
2024/02/21 09:18:59;;;;;;;9.73;4.65;;;;;;;;;;4994558;28;20041;-93
2024/02/21 09:21:28;;;;;;;11.50;5.10;;;;;;;;;;4994594;28;20510;-96
2024/02/21 09:24:03;;;;;;;12.07;6.18;;;;;;;;;;4994407;28;20125;-95
2024/02/21 09:26:29;;;;;;;9.00;4.78;;;;;;;;;;5003148;28;20038;-95
2024/02/21 09:28:55;;;;;;;10.25;5.50;;;;;;;;;;4997732;28;20108;-94
2024/02/21 09:31:21;;;;;;;10.82;4.10;;;;;;;;;;5025412;28;20525;-95
2024/02/21 09:33:47;;;;;;;10.82;4.07;;;;;;;;;;5053253;28;20028;-93
2024/02/21 09:36:19;;;;;;;10.88;4.07;;;;;;;;;;5033025;28;20049;-93
2024/02/21 09:38:46;;;;;;;7.70;3.20;;;;;;;;;;5017256;28;20029;-96
2024/02/21 09:41:19;;;;;;;6.82;3.08;;;;;;;;;;5040034;28;20022;-95
2024/02/21 09:49:26;;;;;;;9.18;3.13;;;;;;;;;;5675788;23;20013;31
2024/02/21 09:52:26;;;;;;;11.52;3.30;;;;;;;;;;4940084;29;20490;-93
2024/02/21 09:55:13;;;;;;;7.32;2.95;;;;;;;;;;5109581;23;20053;-89
2024/02/21 10:00:21;;;;;;;8.30;3.08;;;;;;;;;;5001759;23;20049;-92
2024/02/21 10:03:08;;;;;;;9.15;2.83;;;;;;;;;;4976291;28;20022;-94
2024/02/21 10:08:19;;;;;;;9.07;3.13;;;;;;;;;;5893749;23;20122;-89
2024/02/21 10:11:09;;;;;;;7.15;2.72;;;;;;;;;;5010921;28;20403;-93
2024/02/21 10:13:34;;;;;;;;;;;;;;;;;;4998161;28;20034;-94
2024/02/21 10:22:25;;;;;;;7.88;2.92;;;;;;;;;;5240510;23;20085;-94
2024/02/21 10:24:55;;;;;;;10.90;3.17;;;;;;;;;;4988643;28;20026;-92
2024/02/21 10:27:28;;;;;;;9.00;3.45;;;;;;;;;;4980591;28;20042;-95
2024/02/21 10:29:54;;;;;;;9.32;3.28;;;;;;;;;;4959779;28;20027;-94
2024/02/21 10:32:59;;;;;;;8.85;3.60;;;;;;;;;;4969303;28;20014;-93
2024/02/21 10:35:51;;;;;;;9.18;3.17;;;;;;;;;;4967434;29;20051;-94
2024/02/21 10:47:21;;;;;;;10.15;4.50;;;;;;;;;;5815374;23;20967;-94
2024/02/21 11:03:39;;;;;;;13.45;5.40;;;;;;;;;;4992765;28;20448;-91
2024/02/21 11:09:49;;;;;;;10.32;4.95;;;;;;;;;;5832742;23;20034;-93
2024/02/21 11:12:26;;;;;;;12.27;7.30;;;;;;;;;;5133471;23;20058;-92
2024/02/21 11:15:06;;;;;;;17.17;9.07;;;;;;;;;;4994677;28;20070;-95
2024/02/21 11:20:40;;;;;;;16.60;6.88;;;;;;;;;;4948305;28;20043;-92
2024/02/21 11:26:25;;;;;;;7.75;4.32;;;;;;;;;;5510313;23;20061;-89
2024/02/21 11:29:08;;;;;;;11.43;6.40;;;;;;;;;;5134225;23;20038;-92
2024/02/21 11:31:42;;;;;;;12.77;6.95;;;;;;;;;;5125468;23;20054;-93
2024/02/21 11:34:26;;;;;;;11.65;6.60;;;;;;;;;;5005023;28;20057;-93
2024/02/21 11:37:03;;;;;;;7.90;4.78;;;;;;;;;;5769272;23;20018;-96
2024/02/21 11:39:42;;;;;;;11.20;5.85;;;;;;;;;;5450724;23;20056;-94
2024/02/21 11:45:02;;;;;;;10.73;6.20;;;;;;;;;;5049199;23;20070;-94
2024/02/21 11:47:32;;;;;;;12.23;6.63;;;;;;;;;;4999837;28;20031;-95
2024/02/21 11:50:40;;;;;;;8.00;5.15;;;;;;;;;;5169242;23;20097;-96
2024/02/21 11:53:11;;;;;;;9.43;5.70;;;;;;;;;;5038873;28;20026;-95
2024/02/21 11:55:41;;;;;;;11.02;6.10;;;;;;;;;;5049771;28;20033;-94
2024/02/21 11:58:35;;;;;;;11.95;6.97;;;;;;;;;;5049260;28;20432;-96
2024/02/21 12:01:02;;;;;;;10.40;5.05;;;;;;;;;;5018668;28;20101;-96
2024/02/21 12:03:29;;;;;;;13.60;9.18;;;;;;;;;;5008434;28;20022;-96
2024/02/21 12:11:21;;;;;;;11.45;6.15;;;;;;;;;;5593750;23;20085;-88
2024/02/21 12:14:06;;;;;;;9.00;5.18;;;;;;;;;;5037429;28;20026;-93
2024/02/21 12:17:12;;;;;;;;;;;;;;;;;;;;;
2024/02/21 12:19:45;;;;;;;10.70;5.85;;;;;;;;;;5041822;28;20030;-94
2024/02/21 12:22:32;;;;;;;9.00;4.95;;;;;;;;;;5030756;28;20481;-89
2024/02/21 12:28:24;;;;;;;10.55;5.47;;;;;;;;;;5047265;28;20068;-94
2024/02/21 12:30:55;;;;;;;8.30;6.28;;;;;;;;;;5068553;23;20051;-96
2024/02/21 12:33:22;;;;;;;10.23;5.93;;;;;;;;;;5148748;23;20047;-94
2024/02/21 12:35:49;;;;;;;9.07;7.60;;;;;;;;;;5092587;23;20062;-91
2024/02/21 12:38:20;;;;;;;7.72;4.32;;;;;;;;;;4996320;28;20048;-91
2024/02/21 12:43:56;;;;;;;8.38;6.88;;;;;;;;;;2810185;23;20312;-94
2024/02/21 12:46:32;;;;;;;13.40;7.93;;;;;;;;;;5178061;22;20057;-94
2024/02/21 12:48:58;;;;;;;9.20;6.15;;;;;;;;;;5030942;28;20030;-91
2024/02/21 12:51:39;;;;;;;13.63;5.25;;;;;;;;;;5036352;28;20034;-92
2024/02/21 12:54:26;;;;;;;10.82;5.43;;;;;;;;;;5031154;28;20039;-94
2024/02/21 12:56:52;;;;;;;10.48;6.03;;;;;;;;;;5032390;28;20048;-93
2024/02/21 12:59:21;;;;;;;10.18;6.72;;;;;;;;;;5062148;22;20017;-91
2024/02/21 13:02:09;;;;;;;9.80;4.65;;;;;;;;;;5048496;28;20085;-88
2024/02/21 13:04:48;;;;;;;8.90;5.28;;;;;;;;;;5040987;28;20040;-89
2024/02/21 13:07:32;;;;;;;8.25;5.40;;;;;;;;;;5058425;28;20030;-93
2024/02/21 13:10:00;;;;;;;8.18;6.43;;;;;;;;;;5045832;28;20024;-91
2024/02/21 13:12:46;;;;;;;11.68;7.30;;;;;;;;;;5040789;28;20117;-91
2024/02/21 13:15:42;;;;;;;8.13;4.78;;;;;;;;;;5054700;28;20049;-93
2024/02/21 13:18:24;;;;;;;9.85;4.43;;;;;;;;;;5056473;28;20044;-87
2024/02/21 13:21:25;;;;;;;12.73;6.68;;;;;;;;;;5055002;28;20084;-91
2024/02/21 13:23:56;;;;;;;7.00;2.83;;;;;;;;;;5056019;28;20040;-85
2024/02/21 13:26:22;;;;;;;6.40;5.68;;;;;;;;;;5128828;22;20050;-88
2024/02/21 13:31:46;;;;;;;9.40;7.38;;;;;;;;;;5125000;23;20037;-92
2024/02/21 13:34:19;;;;;;;5.30;3.03;;;;;;;;;;5025316;28;20066;-93
2024/02/21 13:37:13;;;;;;;8.38;4.45;;;;;;;;;;5034609;28;20037;-92
2024/02/21 13:39:40;;;;;;;7.20;3.95;;;;;;;;;;5018712;28;20121;-92
2024/02/21 13:42:33;;;;;;;5.97;2.80;;;;;;;;;;5007413;28;20033;-93
2024/02/21 13:47:38;;;;;;;7.57;3.13;;;;;;;;;;5286962;23;20060;-90
2024/02/21 13:50:04;;;;;;;7.40;5.03;;;;;;;;;;5059660;28;20034;-89
2024/02/21 13:52:33;;;;;;;9.75;5.10;;;;;;;;;;5057526;28;20049;-91
2024/02/21 13:55:14;;;;;;;7.00;4.38;;;;;;;;;;5064108;28;20072;-92
2024/02/21 13:57:49;;;;;;;10.35;4.38;;;;;;;;;;5061288;28;20041;-91
2024/02/21 14:00:15;;;;;;;9.27;4.65;;;;;;;;;;5019715;28;20535;-91
2024/02/21 14:02:41;;;;;;;7.28;4.97;;;;;;;;;;5025190;28;20053;-92
2024/02/21 14:05:08;;;;;;;6.80;5.57;;;;;;;;;;5036382;28;20074;-95
2024/02/21 14:07:34;;;;;;;8.68;4.68;;;;;;;;;;5036541;28;20206;-92
2024/02/21 14:10:01;;;;;;;7.32;4.10;;;;;;;;;;5036993;28;20370;-91
2024/02/21 14:12:27;;;;;;;8.15;5.35;;;;;;;;;;5038259;28;20032;-94
2024/02/21 14:14:53;;;;;;;8.27;4.82;;;;;;;;;;5038719;28;20116;-95
2024/02/21 14:22:42;;;;;;;8.75;6.47;;;;;;;;;;4974626;28;20142;-95
2024/02/21 14:25:08;;;;;;;8.82;5.28;;;;;;;;;;4974674;28;20026;-94
2024/02/21 14:27:36;;;;;;;7.70;5.15;;;;;;;;;;4989706;28;20049;-88
2024/02/21 14:30:03;;;;;;;9.88;6.18;;;;;;;;;;4976755;28;20023;-91
2024/02/21 14:32:29;;;;;;;11.20;2.75;;;;;;;;;;5008747;28;20382;-91
2024/02/21 14:34:56;;;;;;;8.10;4.75;;;;;;;;;;4982656;28;20476;-94
2024/02/21 14:37:22;;;;;;;9.98;9.02;;;;;;;;;;4975042;28;20027;-94
2024/02/21 14:39:48;;;;;;;10.77;7.05;;;;;;;;;;4990217;28;20034;-92
2024/02/21 14:42:15;;;;;;;8.80;4.13;;;;;;;;;;4967322;28;20031;-90
2024/02/21 14:44:41;;;;;;;6.75;3.50;;;;;;;;;;4954961;28;20058;-91
2024/02/21 14:47:07;;;;;;;7.43;3.20;;;;;;;;;;4961246;28;20038;-90
2024/02/21 14:49:33;;;;;;;7.53;4.22;;;;;;;;;;4995316;28;20071;-89
2024/02/21 14:51:59;;;;;;;8.88;4.45;;;;;;;;;;4956549;29;20532;-93
2024/02/21 14:54:26;;;;;;;7.03;2.90;;;;;;;;;;4983287;28;20046;-94
2024/02/21 14:56:52;;;;;;;7.43;5.72;;;;;;;;;;4993611;28;20042;-92
2024/02/21 14:59:18;;;;;;;9.48;8.25;;;;;;;;;;4980423;28;20122;-94
2024/02/21 15:01:47;;;;;;;6.85;3.67;;;;;;;;;;4996765;28;20129;-95
2024/02/21 15:04:16;;;;;;;9.23;7.72;;;;;;;;;;4970543;28;20059;-95
2024/02/21 15:06:45;;;;;;;9.70;5.43;;;;;;;;;;4997397;28;20050;-96
2024/02/21 15:09:11;;;;;;;9.60;4.68;;;;;;;;;;4981518;28;20031;-90
2024/02/21 15:11:38;;;;;;;9.45;7.35;;;;;;;;;;4998806;28;20046;-96
2024/02/21 15:14:04;;;;;;;8.07;4.63;;;;;;;;;;4997145;28;20034;-92
2024/02/21 15:16:30;;;;;;;8.13;3.42;;;;;;;;;;4989938;28;20031;-89
2024/02/21 15:18:56;;;;;;;7.68;5.47;;;;;;;;;;4977797;28;20078;-87
2024/02/21 15:21:22;;;;;;;5.05;2.50;;;;;;;;;;4981547;28;20107;-95
2024/02/21 15:23:51;;;;;;;11.05;3.30;;;;;;;;;;4979400;28;20050;-96
2024/02/21 15:29:20;;;;;;;9.80;3.20;;;;;;;;;;4972954;28;20141;-93
2024/02/21 15:32:00;;;;;;;8.55;2.35;;;;;;;;;;4994454;28;20037;-92
2024/02/21 15:34:26;;;;;;;8.05;4.07;;;;;;;;;;4960593;29;20461;-94
2024/02/21 15:36:52;;;;;;;7.40;2.85;;;;;;;;;;4958117;28;20024;-92
2024/02/21 15:39:27;;;;;;;5.97;2.38;;;;;;;;;;4958599;28;20027;-95
2024/02/21 15:41:55;;;;;;;12.90;4.75;;;;;;;;;;4958913;29;20078;-91
2024/02/21 15:44:21;;;;;;;6.65;2.50;;;;;;;;;;4958021;28;20027;-91
2024/02/21 15:46:47;;;;;;;9.57;5.90;;;;;;;;;;4958199;28;20039;-94
2024/02/21 15:49:13;;;;;;;6.25;2.28;;;;;;;;;;4982910;28;20030;-91
2024/02/21 15:51:46;;;;;;;12.43;6.38;;;;;;;;;;4998243;28;20077;-92
2024/02/21 15:54:13;;;;;;;9.15;3.05;;;;;;;;;;5000066;28;20483;-94
2024/02/21 15:56:45;;;;;;;11.93;3.60;;;;;;;;;;4978703;28;20035;-92
2024/02/21 15:59:14;;;;;;;8.25;3.72;;;;;;;;;;4960677;28;20114;-94
2024/02/21 16:01:53;;;;;;;7.88;2.85;;;;;;;;;;4960075;28;20031;-94
2024/02/21 16:04:19;;;;;;;5.35;1.73;;;;;;;;;;4977351;28;20042;-92
2024/02/21 16:06:51;;;;;;;12.07;3.50;;;;;;;;;;5017029;28;20362;-95
2024/02/21 16:09:17;;;;;;;10.20;5.15;;;;;;;;;;5008057;28;20030;-96
2024/02/21 16:11:44;;;;;;;15.25;3.03;;;;;;;;;;4996020;28;20035;-94
2024/02/21 16:14:10;;;;;;;10.63;4.75;;;;;;;;;;4996471;28;20125;-93